Time;durP1;ratioP1;P1;durP2;ratioP2;P2;SDS_P1;SDS_P2;PMS_P1;PMS_P2;Temp;Humidity;BMP_temperature;BMP_pressure;BME280_temperature;BME280_humidity;BME280_pressure;Samples;Min_cycle;Max_cycle;Signal;HPM_P1;HPM_P2
2022/10/09 00:01:06;;;;;;;10.20;3.25;;;7.60;99.90;;;;;;5078583;28;20376;-70
2022/10/09 00:03:33;;;;;;;12.98;3.08;;;7.60;99.90;;;;;;5079761;28;20078;-69
2022/10/09 00:05:59;;;;;;;10.35;2.83;;;7.60;99.90;;;;;;5096733;28;20054;-70
2022/10/09 00:08:25;;;;;;;8.82;3.20;;;7.60;99.90;;;;;;5095644;28;20130;-70
2022/10/09 00:10:50;;;;;;;8.23;3.10;;;7.60;99.90;;;;;;5096350;28;20054;-70
2022/10/09 00:13:16;;;;;;;9.98;3.33;;;7.60;99.90;;;;;;5078365;28;20058;-69
2022/10/09 00:15:43;;;;;;;5.75;2.40;;;7.50;99.90;;;;;;5092652;28;20396;-71
2022/10/09 00:18:12;;;;;;;9.32;2.80;;;7.50;99.90;;;;;;5058399;28;20528;-70
2022/10/09 00:20:39;;;;;;;7.38;2.80;;;7.50;99.90;;;;;;5057334;28;20052;-70
2022/10/09 00:23:06;;;;;;;8.20;2.78;;;7.50;99.90;;;;;;5058883;28;20058;-70
2022/10/09 00:25:32;;;;;;;10.50;2.92;;;7.50;99.90;;;;;;5075819;28;20409;-70
2022/10/09 00:27:59;;;;;;;11.40;2.88;;;7.40;99.90;;;;;;5075717;28;20048;-69
2022/10/09 00:30:24;;;;;;;9.52;3.08;;;7.40;99.90;;;;;;5059984;28;20056;-70
2022/10/09 00:32:50;;;;;;;7.10;3.00;;;7.40;99.90;;;;;;5095053;28;20384;-69
2022/10/09 00:35:16;;;;;;;6.53;2.63;;;7.40;99.90;;;;;;5095772;28;20053;-71
2022/10/09 00:37:41;;;;;;;10.93;3.30;;;7.40;99.90;;;;;;5095393;28;20384;-70
2022/10/09 00:40:07;;;;;;;9.25;2.95;;;7.30;99.90;;;;;;5095765;28;20058;-70
2022/10/09 00:42:33;;;;;;;13.63;3.13;;;7.30;99.90;;;;;;5095290;28;20048;-69
2022/10/09 00:45:01;;;;;;;6.18;2.72;;;7.30;99.90;;;;;;5095570;28;20047;-71
2022/10/09 00:47:43;;;;;;;8.68;2.90;;;7.30;99.90;;;;;;5072287;28;20464;-70
2022/10/09 00:50:18;;;;;;;8.57;2.70;;;7.30;99.90;;;;;;5075342;28;20161;-69
2022/10/09 00:52:44;;;;;;;12.55;3.17;;;7.20;99.90;;;;;;5075266;28;20058;-70
2022/10/09 00:55:13;;;;;;;10.30;3.17;;;7.20;99.90;;;;;;5057302;28;20071;-69
2022/10/09 00:57:39;;;;;;;8.95;3.42;;;7.20;99.90;;;;;;5074986;28;20046;-71
2022/10/09 01:00:08;;;;;;;9.13;3.28;;;7.10;99.90;;;;;;5075487;28;20396;-70
2022/10/09 01:02:33;;;;;;;12.50;3.40;;;7.10;99.90;;;;;;5094957;28;20051;-70
2022/10/09 01:04:59;;;;;;;7.15;2.80;;;7.10;99.90;;;;;;5077687;28;20044;-71
2022/10/09 01:07:25;;;;;;;7.78;2.90;;;7.10;99.90;;;;;;5095505;28;20048;-70
2022/10/09 01:09:56;;;;;;;8.30;3.42;;;7.00;99.90;;;;;;5077511;28;20043;-70
2022/10/09 01:13:05;;;;;;;9.15;3.58;;;7.00;99.90;;;;;;5095014;28;20091;-69
2022/10/09 01:15:37;;;;;;;7.13;2.75;;;7.00;99.90;;;;;;5089839;28;20127;-71
2022/10/09 01:18:13;;;;;;;5.70;3.13;;;6.90;99.90;;;;;;5074931;28;20056;-70
2022/10/09 01:20:43;;;;;;;8.27;3.80;;;6.90;99.90;;;;;;5075707;28;20036;-69
2022/10/09 01:23:34;;;;;;;10.70;4.35;;;7.30;99.90;;;;;;5057543;28;20098;-71
2022/10/09 01:26:03;;;;;;;6.45;3.28;;;6.80;99.90;;;;;;5074744;28;20136;-70
2022/10/09 01:28:29;;;;;;;6.28;3.10;;;6.80;99.90;;;;;;5074713;28;20041;-70
2022/10/09 01:31:01;;;;;;;9.73;3.10;;;6.80;99.90;;;;;;5074214;28;20052;-70
2022/10/09 01:33:30;;;;;;;6.22;3.17;;;6.80;99.90;;;;;;5074464;28;20048;-70
2022/10/09 01:35:56;;;;;;;9.68;3.60;;;6.80;99.90;;;;;;5074289;28;20048;-70
2022/10/09 01:38:23;;;;;;;8.85;4.18;;;6.70;99.90;;;;;;5057228;28;20052;-69
2022/10/09 01:40:51;;;;;;;7.93;3.47;;;6.70;99.90;;;;;;5074907;28;20033;-71
2022/10/09 01:43:16;;;;;;;9.07;3.38;;;6.70;99.90;;;;;;5056947;28;20511;-69
2022/10/09 01:45:45;;;;;;;10.07;4.00;;;6.70;99.90;;;;;;5056733;28;20083;-70
2022/10/09 01:48:20;;;;;;;10.80;3.70;;;6.70;99.90;;;;;;5074899;28;20055;-71
2022/10/09 01:50:53;;;;;;;8.02;3.65;;;6.60;99.90;;;;;;5086478;28;20119;-71
2022/10/09 01:53:20;;;;;;;13.68;3.70;;;6.80;99.90;;;;;;5060820;28;20048;-69
2022/10/09 01:55:56;;;;;;;6.90;3.75;;;6.60;99.90;;;;;;5077056;28;20122;-70
2022/10/09 01:58:34;;;;;;;12.07;4.15;;;6.60;99.90;;;;;;5094608;28;20076;-72
2022/10/09 02:01:18;;;;;;;8.10;4.00;;;6.50;99.90;;;;;;5077087;28;20048;-70
2022/10/09 02:03:48;;;;;;;10.35;3.88;;;6.50;99.90;;;;;;5094695;28;20056;-70
2022/10/09 02:06:16;;;;;;;9.05;4.50;;;6.50;99.90;;;;;;5094306;28;20100;-71
2022/10/09 02:08:45;;;;;;;10.98;4.43;;;6.50;99.90;;;;;;5094406;28;20051;-70
2022/10/09 02:11:16;;;;;;;11.65;4.13;;;6.50;99.90;;;;;;5076961;28;20105;-70
2022/10/09 02:13:44;;;;;;;8.95;3.65;;;6.50;99.90;;;;;;5094526;28;20044;-69
2022/10/09 02:16:21;;;;;;;11.95;5.07;;;6.40;99.90;;;;;;5076422;28;20074;-69
2022/10/09 02:18:57;;;;;;;11.43;4.78;;;6.40;99.90;;;;;;5094105;28;20144;-71
2022/10/09 02:21:28;;;;;;;10.63;4.03;;;6.50;99.90;;;;;;5056932;28;20088;-71
2022/10/09 02:23:56;;;;;;;10.18;4.43;;;6.40;99.90;;;;;;5074452;28;20045;-70
2022/10/09 02:26:22;;;;;;;10.95;4.63;;;6.30;99.90;;;;;;5074404;28;20365;-71
2022/10/09 02:28:48;;;;;;;11.25;4.10;;;6.30;99.90;;;;;;5074238;28;20045;-70
2022/10/09 02:31:24;;;;;;;13.52;5.10;;;6.30;99.90;;;;;;5074230;28;20052;-70
2022/10/09 02:33:58;;;;;;;6.30;4.35;;;6.30;99.90;;;;;;5074391;28;20044;-71
2022/10/09 02:36:24;;;;;;;11.60;4.78;;;6.20;99.90;;;;;;5074181;28;20368;-70
2022/10/09 02:38:50;;;;;;;7.15;4.53;;;6.20;99.90;;;;;;5056897;28;20057;-70
2022/10/09 02:41:16;;;;;;;11.68;4.35;;;6.20;99.90;;;;;;5074057;28;20131;-69
2022/10/09 02:43:41;;;;;;;8.88;5.07;;;6.20;99.90;;;;;;5057750;28;20048;-70
2022/10/09 02:46:07;;;;;;;11.52;4.97;;;6.20;99.90;;;;;;5059785;28;20513;-69
2022/10/09 02:48:32;;;;;;;7.82;4.93;;;6.20;99.90;;;;;;5079816;28;20040;-71
2022/10/09 02:50:59;;;;;;;10.25;5.32;;;6.10;99.90;;;;;;5080150;28;20058;-69
2022/10/09 02:53:25;;;;;;;12.65;5.25;;;6.10;99.90;;;;;;5097751;28;20429;-69
2022/10/09 02:55:51;;;;;;;10.55;5.40;;;6.10;99.90;;;;;;5097812;28;20127;-69
2022/10/09 02:58:17;;;;;;;15.35;6.45;;;6.10;99.90;;;;;;5097729;28;20108;-71
2022/10/09 03:00:46;;;;;;;17.08;6.63;;;6.10;99.90;;;;;;5079733;28;20044;-70
2022/10/09 03:03:12;;;;;;;12.40;5.45;;;6.10;99.90;;;;;;5097087;28;20036;-69
2022/10/09 03:05:37;;;;;;;12.15;6.90;;;6.10;99.90;;;;;;5097639;28;20051;-70
2022/10/09 03:08:03;;;;;;;12.65;5.78;;;6.10;99.90;;;;;;5097153;28;20055;-69
2022/10/09 03:10:28;;;;;;;11.35;5.15;;;6.10;99.90;;;;;;5097752;28;20048;-69
2022/10/09 03:12:54;;;;;;;20.30;8.18;;;6.10;99.90;;;;;;5079726;28;20142;-71
2022/10/09 03:15:20;;;;;;;11.80;6.72;;;6.00;99.90;;;;;;5079333;28;20052;-69
2022/10/09 03:17:45;;;;;;;12.60;6.85;;;6.00;99.90;;;;;;5079932;28;20064;-70
2022/10/09 03:20:11;;;;;;;12.98;6.60;;;6.00;99.90;;;;;;5078803;28;20052;-71
2022/10/09 03:22:37;;;;;;;14.23;6.68;;;6.00;99.90;;;;;;5079552;28;20036;-69
2022/10/09 03:25:02;;;;;;;13.63;6.22;;;6.00;99.90;;;;;;5079743;28;20044;-71
2022/10/09 03:27:29;;;;;;;10.65;6.93;;;6.00;99.90;;;;;;5097166;28;20166;-70
2022/10/09 03:29:57;;;;;;;10.38;5.93;;;6.00;99.90;;;;;;5096965;28;20084;-70
2022/10/09 03:32:22;;;;;;;8.57;6.60;;;6.00;99.90;;;;;;5096983;28;20364;-69
2022/10/09 03:34:48;;;;;;;13.40;7.68;;;5.90;99.90;;;;;;5096262;28;20040;-70
2022/10/09 03:37:14;;;;;;;12.73;7.43;;;5.90;99.90;;;;;;5059471;28;20067;-69
2022/10/09 03:39:39;;;;;;;17.35;8.85;;;5.90;99.90;;;;;;5076654;28;20064;-69
2022/10/09 03:42:05;;;;;;;23.27;8.70;;;5.90;99.90;;;;;;5076684;28;20076;-69
2022/10/09 03:44:30;;;;;;;16.23;8.98;;;5.90;99.90;;;;;;5075498;28;20084;-70
2022/10/09 03:46:56;;;;;;;15.15;8.80;;;5.90;99.90;;;;;;5076571;28;20127;-69
2022/10/09 03:49:21;;;;;;;16.63;9.15;;;5.90;99.90;;;;;;5058101;28;20450;-70
2022/10/09 03:51:47;;;;;;;14.25;9.45;;;5.90;99.90;;;;;;5055516;28;20049;-69
2022/10/09 03:54:13;;;;;;;16.23;8.68;;;5.90;99.90;;;;;;5055625;28;20427;-70
2022/10/09 03:56:38;;;;;;;16.38;8.73;;;5.90;99.90;;;;;;5055616;28;20041;-70
2022/10/09 03:59:06;;;;;;;12.52;8.02;;;5.90;99.90;;;;;;5055957;28;20052;-70
2022/10/09 04:01:32;;;;;;;12.65;7.43;;;5.90;99.90;;;;;;5065117;28;20457;-70
2022/10/09 04:03:58;;;;;;;12.40;7.88;;;5.90;99.90;;;;;;5055673;28;20049;-70
2022/10/09 04:06:23;;;;;;;17.50;8.27;;;6.10;99.90;;;;;;5055039;28;20133;-70
2022/10/09 04:08:49;;;;;;;15.88;9.13;;;5.80;99.90;;;;;;5056337;28;20132;-69
2022/10/09 04:11:14;;;;;;;15.73;9.00;;;5.80;99.90;;;;;;5056183;28;20049;-69
2022/10/09 04:13:40;;;;;;;14.13;8.35;;;5.80;99.90;;;;;;5055910;28;20060;-69
2022/10/09 04:16:08;;;;;;;18.75;9.05;;;5.80;99.90;;;;;;5056001;28;20048;-70
2022/10/09 04:18:33;;;;;;;14.15;7.95;;;5.70;99.90;;;;;;5070248;28;20040;-69
2022/10/09 04:20:59;;;;;;;13.68;8.52;;;5.70;99.90;;;;;;5075928;28;20460;-69
2022/10/09 04:23:26;;;;;;;13.95;8.45;;;5.70;99.90;;;;;;5075946;28;20047;-69
2022/10/09 04:25:57;;;;;;;17.23;9.48;;;5.70;99.90;;;;;;5075867;28;20044;-70
2022/10/09 04:28:23;;;;;;;13.75;8.55;;;5.70;99.90;;;;;;5075397;28;20123;-70
2022/10/09 04:30:49;;;;;;;16.67;9.98;;;5.60;99.90;;;;;;5075625;28;20049;-69
2022/10/09 04:33:14;;;;;;;19.00;9.65;;;5.60;99.90;;;;;;5075128;28;20487;-68
2022/10/09 04:35:44;;;;;;;16.33;9.57;;;5.60;99.90;;;;;;5075578;28;20045;-70
2022/10/09 04:38:10;;;;;;;12.10;8.40;;;5.60;99.90;;;;;;5096228;28;20059;-70
2022/10/09 04:40:35;;;;;;;12.73;7.60;;;5.60;99.90;;;;;;5077487;28;20059;-69
2022/10/09 04:43:01;;;;;;;13.85;8.77;;;5.60;99.90;;;;;;5077801;28;20109;-69
2022/10/09 04:45:27;;;;;;;19.85;10.80;;;5.60;99.90;;;;;;5078341;28;20048;-68
2022/10/09 04:47:52;;;;;;;16.55;8.27;;;5.60;99.90;;;;;;5082315;28;20036;-70
2022/10/09 04:50:18;;;;;;;20.33;9.85;;;5.60;99.90;;;;;;5057822;28;20124;-69
2022/10/09 04:52:43;;;;;;;13.75;8.20;;;5.60;99.90;;;;;;5058090;28;20037;-69
2022/10/09 04:55:09;;;;;;;13.32;8.02;;;5.50;99.90;;;;;;5057855;28;20056;-70
2022/10/09 04:57:34;;;;;;;16.25;9.27;;;5.50;99.90;;;;;;5074859;28;20036;-70
2022/10/09 05:00:00;;;;;;;15.27;9.02;;;5.50;99.90;;;;;;5057724;28;20052;-70
2022/10/09 05:02:25;;;;;;;12.90;8.10;;;5.50;99.90;;;;;;5086343;28;20066;-68
2022/10/09 05:04:51;;;;;;;15.38;9.13;;;5.50;99.90;;;;;;5094496;28;20048;-69
2022/10/09 05:07:17;;;;;;;15.05;9.32;;;5.50;99.90;;;;;;5094805;28;20050;-70
2022/10/09 05:09:42;;;;;;;16.83;9.63;;;5.50;99.90;;;;;;5095445;28;20052;-69
2022/10/09 05:12:08;;;;;;;14.57;8.27;;;5.50;99.90;;;;;;5077288;28;20052;-70
2022/10/09 05:14:33;;;;;;;16.08;8.48;;;5.50;99.90;;;;;;5095617;28;20433;-70
2022/10/09 05:17:03;;;;;;;19.08;9.55;;;5.50;99.90;;;;;;5070933;28;20044;-70
2022/10/09 05:19:31;;;;;;;15.18;9.82;;;5.40;99.90;;;;;;5075837;28;20123;-69
2022/10/09 05:22:01;;;;;;;14.50;8.43;;;5.40;99.90;;;;;;5058970;28;20062;-68
2022/10/09 05:24:27;;;;;;;17.42;9.68;;;5.40;99.90;;;;;;5075083;28;20461;-69
2022/10/09 05:26:53;;;;;;;13.35;8.38;;;5.40;99.90;;;;;;5057186;28;20044;-71
2022/10/09 05:29:19;;;;;;;12.98;9.00;;;5.40;99.90;;;;;;5057323;28;20040;-71
2022/10/09 05:31:44;;;;;;;13.40;8.52;;;5.40;99.90;;;;;;5063099;28;20119;-70
2022/10/09 05:34:10;;;;;;;13.60;7.75;;;5.40;99.90;;;;;;5094970;28;20368;-69
2022/10/09 05:36:36;;;;;;;13.35;9.00;;;5.40;99.90;;;;;;5094739;28;20056;-69
2022/10/09 05:39:01;;;;;;;15.63;9.55;;;5.40;99.90;;;;;;5077411;28;20109;-70
2022/10/09 05:41:28;;;;;;;12.93;9.50;;;5.40;99.90;;;;;;5078709;28;20047;-72
2022/10/09 05:43:58;;;;;;;19.77;11.18;;;5.40;99.90;;;;;;5082186;28;20032;-71
2022/10/09 05:46:24;;;;;;;23.10;13.70;;;5.40;99.90;;;;;;5093904;28;20513;-70
2022/10/09 05:49:04;;;;;;;19.15;12.35;;;5.40;99.90;;;;;;5094845;28;20040;-69
2022/10/09 05:51:32;;;;;;;22.58;13.98;;;5.40;99.90;;;;;;5083540;28;20126;-69
2022/10/09 05:54:00;;;;;;;26.42;16.83;;;5.40;99.90;;;;;;5114876;28;20075;-71
2022/10/09 05:56:31;;;;;;;22.83;14.23;;;5.40;99.90;;;;;;5114735;28;20444;-69
2022/10/09 05:59:05;;;;;;;24.42;15.60;;;5.50;99.90;;;;;;5115005;28;20118;-71
2022/10/09 06:01:43;;;;;;;29.98;13.55;;;5.60;99.90;;;;;;5092571;28;20052;-69
2022/10/09 06:04:15;;;;;;;24.95;15.88;;;5.50;99.90;;;;;;5076691;28;20044;-71
2022/10/09 06:06:42;;;;;;;22.45;14.05;;;5.50;99.90;;;;;;5094511;28;20044;-70
2022/10/09 06:09:09;;;;;;;17.88;11.52;;;5.50;99.90;;;;;;5094455;28;20091;-69
2022/10/09 06:11:37;;;;;;;21.33;14.02;;;5.50;99.90;;;;;;5076827;28;20051;-70
2022/10/09 06:14:06;;;;;;;27.65;13.93;;;5.50;99.90;;;;;;5094386;28;20048;-71
2022/10/09 06:16:34;;;;;;;18.52;11.77;;;5.50;99.90;;;;;;5089343;28;20068;-71
2022/10/09 06:19:00;;;;;;;17.77;12.38;;;5.50;99.90;;;;;;5049587;28;20035;-71
2022/10/09 06:21:26;;;;;;;17.80;11.73;;;5.80;99.90;;;;;;5080718;28;20044;-71
2022/10/09 06:23:54;;;;;;;17.35;10.77;;;5.60;99.90;;;;;;5083504;28;20050;-70
2022/10/09 06:26:21;;;;;;;18.48;11.48;;;5.60;99.90;;;;;;5097513;28;20447;-70
2022/10/09 06:28:47;;;;;;;14.82;10.60;;;5.60;99.90;;;;;;5098142;28;20364;-70
2022/10/09 06:31:15;;;;;;;14.85;9.77;;;5.60;99.90;;;;;;5097710;28;20044;-70
2022/10/09 06:33:42;;;;;;;13.77;9.38;;;5.60;99.90;;;;;;5097795;28;20456;-71
2022/10/09 06:36:13;;;;;;;15.65;8.82;;;5.60;99.90;;;;;;5095595;28;20088;-70
2022/10/09 06:38:39;;;;;;;15.73;9.07;;;5.70;99.90;;;;;;5097953;28;20063;-69
2022/10/09 06:41:10;;;;;;;19.58;10.10;;;5.70;99.90;;;;;;5097402;28;20341;-70
2022/10/09 06:43:37;;;;;;;14.68;9.75;;;5.70;99.90;;;;;;5080341;28;20048;-70
2022/10/09 06:46:06;;;;;;;13.98;8.27;;;5.80;99.90;;;;;;5097505;28;20059;-69
2022/10/09 06:48:33;;;;;;;10.82;8.45;;;5.80;99.90;;;;;;5080227;28;20062;-70
2022/10/09 06:51:07;;;;;;;14.02;8.25;;;5.80;99.90;;;;;;5097892;28;20055;-69
2022/10/09 06:53:37;;;;;;;14.27;9.13;;;5.90;99.90;;;;;;5097720;28;20147;-70
2022/10/09 06:56:05;;;;;;;16.52;9.15;;;6.00;99.90;;;;;;5079711;28;20119;-69
2022/10/09 06:58:31;;;;;;;17.67;10.32;;;6.10;99.90;;;;;;5077228;28;20070;-69
2022/10/09 07:01:11;;;;;;;14.18;8.35;;;6.10;99.90;;;;;;5059896;28;20419;-70
2022/10/09 07:03:39;;;;;;;18.80;9.45;;;6.20;99.90;;;;;;5077232;28;20044;-69
2022/10/09 07:06:18;;;;;;;16.02;10.48;;;6.30;99.90;;;;;;5077212;28;20048;-69
2022/10/09 07:08:46;;;;;;;18.75;10.02;;;6.40;99.90;;;;;;5059166;28;20064;-69
2022/10/09 07:11:19;;;;;;;12.93;8.55;;;6.50;99.90;;;;;;5076943;28;20350;-70
2022/10/09 07:13:46;;;;;;;12.93;8.25;;;6.60;99.90;;;;;;5077360;28;20044;-70
2022/10/09 07:16:11;;;;;;;16.60;9.68;;;6.60;99.90;;;;;;5077003;28;20054;-69
2022/10/09 07:18:38;;;;;;;18.00;11.00;;;6.70;99.90;;;;;;5077000;28;20128;-68
2022/10/09 07:21:06;;;;;;;19.20;11.95;;;6.80;99.90;;;;;;5076941;28;20147;-69
2022/10/09 07:23:32;;;;;;;20.85;13.55;;;6.80;99.90;;;;;;5076923;28;20478;-70
2022/10/09 07:25:59;;;;;;;19.75;14.02;;;6.90;99.90;;;;;;5097093;28;20483;-69
2022/10/09 07:28:27;;;;;;;20.88;12.90;;;6.90;99.90;;;;;;5078873;28;20058;-70
2022/10/09 07:30:53;;;;;;;17.05;12.50;;;7.00;99.90;;;;;;5096815;28;20076;-69
2022/10/09 07:33:18;;;;;;;16.20;11.02;;;7.00;99.90;;;;;;5096990;28;20439;-70
2022/10/09 07:35:56;;;;;;;17.58;10.13;;;7.10;99.90;;;;;;5078840;28;20047;-70
2022/10/09 07:38:23;;;;;;;14.38;9.73;;;7.20;99.90;;;;;;5075158;28;20063;-70
2022/10/09 07:40:49;;;;;;;18.08;9.55;;;7.20;99.90;;;;;;5076628;28;20040;-70
2022/10/09 07:43:15;;;;;;;17.27;8.43;;;7.30;99.90;;;;;;5076792;28;20058;-68
2022/10/09 07:45:41;;;;;;;16.23;8.93;;;7.40;99.90;;;;;;5076458;28;20123;-69
2022/10/09 07:48:06;;;;;;;14.00;8.82;;;7.40;99.90;;;;;;5076792;28;20040;-69
2022/10/09 07:50:32;;;;;;;16.05;9.00;;;7.50;99.90;;;;;;5077199;28;20040;-70
2022/10/09 07:52:58;;;;;;;12.60;8.88;;;7.50;99.90;;;;;;5074663;28;20361;-70
2022/10/09 07:55:23;;;;;;;16.00;10.73;;;7.60;99.90;;;;;;5056245;28;20041;-69
2022/10/09 07:57:49;;;;;;;17.10;9.90;;;7.60;99.90;;;;;;5038546;28;20343;-70
2022/10/09 08:00:15;;;;;;;18.88;9.70;;;7.70;99.90;;;;;;5056532;28;20064;-71
2022/10/09 08:02:41;;;;;;;37.78;19.15;;;7.80;99.90;;;;;;5056262;28;20109;-70
2022/10/09 08:05:07;;;;;;;21.13;13.25;;;7.90;99.90;;;;;;5055274;28;20135;-70
2022/10/09 08:07:32;;;;;;;18.38;11.02;;;8.00;99.90;;;;;;5055968;28;20060;-70
2022/10/09 08:09:58;;;;;;;16.50;10.15;;;8.10;99.90;;;;;;5056033;28;20055;-71
2022/10/09 08:12:23;;;;;;;16.73;11.57;;;8.10;99.90;;;;;;5056018;28;20430;-71
2022/10/09 08:14:49;;;;;;;13.60;9.45;;;8.20;99.90;;;;;;5056058;28;20044;-69
2022/10/09 08:17:15;;;;;;;14.68;9.02;;;8.20;99.90;;;;;;5055783;28;20033;-70
2022/10/09 08:19:41;;;;;;;16.05;10.07;;;8.30;99.90;;;;;;5056008;28;20044;-71
2022/10/09 08:22:06;;;;;;;15.10;9.68;;;8.30;99.90;;;;;;5055763;28;20047;-71
2022/10/09 08:24:32;;;;;;;11.55;8.18;;;8.40;99.90;;;;;;5072150;28;20048;-70
2022/10/09 08:26:57;;;;;;;15.55;10.32;;;8.50;99.90;;;;;;5074428;28;20045;-69
2022/10/09 08:29:23;;;;;;;15.63;9.68;;;8.60;99.90;;;;;;5075595;28;20079;-71
2022/10/09 08:31:49;;;;;;;17.88;11.05;;;8.70;99.90;;;;;;5075717;28;20055;-69
2022/10/09 08:34:14;;;;;;;19.52;16.17;;;8.70;99.90;;;;;;5074579;28;20412;-70
2022/10/09 08:36:40;;;;;;;14.23;8.15;;;8.80;99.90;;;;;;5080584;28;20060;-70
2022/10/09 08:39:05;;;;;;;15.13;8.70;;;8.90;99.90;;;;;;5095518;28;20051;-70
2022/10/09 08:41:47;;;;;;;13.15;8.38;;;9.00;99.90;;;;;;5095080;28;20047;-70
2022/10/09 08:44:26;;;;;;;12.57;8.25;;;9.10;99.90;;;;;;5095264;28;20137;-69
2022/10/09 08:46:59;;;;;;;13.98;8.63;;;9.10;99.90;;;;;;5077914;28;20131;-70
2022/10/09 08:49:32;;;;;;;13.77;8.93;;;9.20;99.90;;;;;;5095584;28;20051;-70
2022/10/09 08:52:10;;;;;;;13.18;7.90;;;9.30;99.90;;;;;;5077336;28;20468;-72
2022/10/09 08:54:38;;;;;;;12.73;8.52;;;9.40;99.90;;;;;;5075256;28;20059;-69
2022/10/09 08:57:11;;;;;;;17.60;9.95;;;9.50;99.90;;;;;;5057739;28;20071;-68
2022/10/09 08:59:39;;;;;;;14.27;7.07;;;9.60;99.90;;;;;;5057675;28;20048;-70
2022/10/09 09:02:45;;;;;;;15.93;7.30;;;9.60;99.90;;;;;;5072412;28;20044;-70
2022/10/09 09:05:29;;;;;;;15.50;7.53;;;9.80;99.90;;;;;;5108780;28;20043;-70
2022/10/09 09:08:04;;;;;;;13.90;6.88;;;9.90;99.90;;;;;;5094027;28;20048;-69
2022/10/09 09:10:41;;;;;;;10.18;6.07;;;10.00;99.90;;;;;;5074603;28;20473;-69
2022/10/09 09:13:36;;;;;;;13.70;6.35;;;10.10;99.90;;;;;;5074915;28;20456;-71
2022/10/09 09:16:21;;;;;;;10.95;5.85;;;10.20;99.90;;;;;;5074837;28;20051;-70
2022/10/09 09:19:12;;;;;;;15.88;5.78;;;10.30;99.90;;;;;;5074801;28;20049;-69
2022/10/09 09:21:50;;;;;;;12.38;5.50;;;10.40;99.90;;;;;;5031358;28;20364;-68
2022/10/09 09:24:25;;;;;;;22.98;5.85;;;10.50;99.90;;;;;;5060923;28;20047;-70
2022/10/09 09:26:54;;;;;;;10.45;4.82;;;10.60;99.90;;;;;;5094760;28;20060;-68
2022/10/09 09:29:24;;;;;;;11.77;4.63;;;11.00;99.90;;;;;;5094863;28;20059;-68
2022/10/09 09:31:55;;;;;;;11.77;4.78;;;10.80;99.90;;;;;;5077398;28;20083;-70
2022/10/09 09:34:33;;;;;;;11.02;4.38;;;10.90;99.90;;;;;;5096032;28;20059;-69
2022/10/09 09:37:00;;;;;;;10.75;4.10;;;10.90;99.90;;;;;;5094850;28;20078;-71
2022/10/09 09:39:28;;;;;;;13.18;3.92;;;10.90;99.90;;;;;;5095631;28;20119;-70
2022/10/09 09:42:11;;;;;;;7.47;3.55;;;11.00;99.90;;;;;;5096399;28;20070;-69
2022/10/09 09:44:41;;;;;;;10.20;4.10;;;11.10;99.90;;;;;;5095024;28;20374;-69
2022/10/09 09:47:16;;;;;;;11.00;3.47;;;11.20;99.90;;;;;;5095158;28;20044;-71
2022/10/09 09:49:56;;;;;;;11.65;4.22;;;11.40;99.90;;;;;;5094849;28;20360;-71
2022/10/09 09:52:25;;;;;;;8.77;3.25;;;11.40;99.90;;;;;;5077140;28;20036;-72
2022/10/09 09:54:50;;;;;;;8.10;3.13;;;11.50;99.90;;;;;;5099046;28;20061;-72
2022/10/09 09:57:34;;;;;;;9.20;3.72;;;11.50;99.90;;;;;;5113050;28;20044;-71
2022/10/09 10:00:15;;;;;;;10.10;3.50;;;11.70;99.90;;;;;;5119247;28;20054;-70
2022/10/09 10:02:40;;;;;;;8.52;2.50;;;11.70;99.90;;;;;;5099457;28;20054;-69
2022/10/09 10:05:26;;;;;;;8.27;2.50;;;11.80;99.90;;;;;;5098922;28;20368;-70
2022/10/09 10:07:52;;;;;;;10.13;3.13;;;11.80;99.90;;;;;;5099135;28;20040;-70
2022/10/09 10:10:19;;;;;;;10.82;3.65;;;11.90;99.90;;;;;;5070763;28;20476;-71
2022/10/09 10:12:53;;;;;;;8.43;2.85;;;11.90;99.90;;;;;;5078577;28;20048;-72
2022/10/09 10:15:28;;;;;;;11.23;3.42;;;12.00;99.90;;;;;;5078393;28;20055;-71
2022/10/09 10:18:15;;;;;;;8.30;3.05;;;12.00;99.90;;;;;;5078381;28;20059;-72
2022/10/09 10:20:46;;;;;;;8.15;2.92;;;12.10;99.90;;;;;;5078410;28;20048;-70
2022/10/09 10:23:57;;;;;;;7.85;3.33;;;12.20;99.90;;;;;;5078503;28;20044;-71
2022/10/09 10:26:37;;;;;;;9.40;2.80;;;12.20;99.90;;;;;;5092857;28;20506;-72
2022/10/09 10:29:47;;;;;;;12.63;2.80;;;12.30;99.90;;;;;;5098408;28;20080;-69
2022/10/09 10:32:23;;;;;;;11.90;3.13;;;12.50;99.90;;;;;;5074301;28;20067;-72
2022/10/09 10:35:08;;;;;;;7.85;2.50;;;12.60;99.90;;;;;;5078347;28;20041;-71
2022/10/09 10:37:39;;;;;;;10.35;3.00;;;12.70;99.90;;;;;;5092867;28;20052;-73
2022/10/09 10:40:12;;;;;;;9.32;2.88;;;12.80;99.90;;;;;;5097993;28;20513;-71
2022/10/09 10:43:01;;;;;;;13.55;2.92;;;12.90;99.90;;;;;;5097531;28;20048;-69
2022/10/09 10:45:42;;;;;;;9.05;2.97;;;13.00;99.90;;;;;;5098158;28;20524;-72
2022/10/09 10:48:18;;;;;;;10.07;3.05;;;13.10;99.90;;;;;;5080368;28;20048;-71
2022/10/09 10:51:17;;;;;;;8.85;3.28;;;13.20;99.90;;;;;;5098045;28;20044;-70
2022/10/09 10:53:48;;;;;;;12.52;3.10;;;13.30;99.90;;;;;;5098223;28;20086;-70
2022/10/09 10:56:29;;;;;;;12.48;2.45;;;13.40;99.90;;;;;;5097708;28;20047;-70
2022/10/09 10:59:17;;;;;;;11.75;2.80;;;13.50;99.90;;;;;;5080874;28;20467;-70
2022/10/09 11:02:09;;;;;;;10.60;2.28;;;13.50;99.90;;;;;;5079841;28;20043;-70
2022/10/09 11:04:38;;;;;;;7.05;2.22;;;13.60;99.90;;;;;;5097099;28;20044;-71
2022/10/09 11:07:22;;;;;;;8.20;2.20;;;13.70;99.90;;;;;;5097249;28;20047;-72
2022/10/09 11:09:56;;;;;;;10.98;2.53;;;13.80;99.90;;;;;;5097721;28;20044;-72
2022/10/09 11:12:33;;;;;;;8.60;1.83;;;13.80;99.90;;;;;;5080331;28;20090;-71
2022/10/09 11:15:15;;;;;;;6.13;2.33;;;13.80;99.90;;;;;;5080002;28;20368;-71
2022/10/09 11:18:20;;;;;;;6.38;2.60;;;13.90;99.90;;;;;;5096764;28;20449;-72
2022/10/09 11:21:21;;;;;;;7.18;2.20;;;14.00;99.90;;;;;;5059854;28;20075;-74
2022/10/09 11:24:17;;;;;;;8.32;2.00;;;14.10;99.90;;;;;;5085394;28;20059;-71
2022/10/09 11:27:09;;;;;;;8.98;2.08;;;14.20;99.90;;;;;;5080045;28;20048;-71
2022/10/09 11:29:44;;;;;;;7.40;2.35;;;14.20;99.90;;;;;;5097377;28;20040;-71
2022/10/09 11:32:35;;;;;;;6.45;1.70;;;14.30;99.90;;;;;;5079134;28;20464;-69
2022/10/09 11:35:20;;;;;;;12.75;1.88;;;14.40;99.90;;;;;;5096765;28;20059;-71
2022/10/09 11:38:01;;;;;;;7.03;1.77;;;14.50;99.90;;;;;;5075762;28;20060;-71
2022/10/09 11:40:32;;;;;;;7.13;1.85;;;14.50;99.90;;;;;;5076018;28;20520;-71
2022/10/09 11:43:41;;;;;;;5.55;2.53;;;14.60;99.90;;;;;;5075982;28;20479;-73
2022/10/09 11:46:14;;;;;;;10.98;2.63;;;14.60;99.90;;;;;;5031972;28;20056;-72
2022/10/09 11:49:08;;;;;;;8.50;1.95;;;14.70;99.90;;;;;;5076467;28;20381;-71
2022/10/09 11:51:33;;;;;;;7.03;2.33;;;14.60;99.90;;;;;;5076092;28;20052;-70
2022/10/09 11:54:00;;;;;;;10.13;2.08;;;14.70;99.90;;;;;;5076146;28;20059;-72
2022/10/09 11:56:30;;;;;;;8.10;2.42;;;14.70;99.90;;;;;;5076611;28;20041;-72
2022/10/09 11:59:05;;;;;;;4.55;2.03;;;14.70;99.90;;;;;;5075638;28;20063;-71
2022/10/09 12:01:39;;;;;;;7.00;1.95;;;14.70;99.90;;;;;;5076684;28;20127;-72
2022/10/09 12:04:27;;;;;;;3.42;1.45;;;14.70;99.90;;;;;;5058003;28;20432;-70
2022/10/09 12:06:56;;;;;;;10.77;2.88;;;14.80;99.90;;;;;;5077764;28;20079;-71
2022/10/09 12:09:36;;;;;;;5.68;1.90;;;14.80;99.90;;;;;;5091807;28;20063;-72
2022/10/09 12:12:21;;;;;;;7.93;2.20;;;14.80;99.90;;;;;;5090474;28;20041;-72
2022/10/09 12:14:50;;;;;;;7.07;2.17;;;14.80;99.90;;;;;;5076354;28;20084;-71
2022/10/09 12:17:21;;;;;;;9.20;2.78;;;14.90;99.90;;;;;;5074978;28;20079;-71
2022/10/09 12:19:51;;;;;;;6.60;2.40;;;15.00;99.90;;;;;;5076058;28;20041;-74
2022/10/09 12:22:26;;;;;;;7.72;2.17;;;15.40;99.90;;;;;;5075598;28;20040;-72
2022/10/09 12:24:56;;;;;;;9.38;2.30;;;15.60;99.90;;;;;;5056103;28;20063;-70
2022/10/09 12:27:36;;;;;;;8.20;1.77;;;15.80;99.90;;;;;;5072295;28;20075;-74
2022/10/09 12:30:20;;;;;;;5.95;1.90;;;15.80;99.90;;;;;;5055877;28;20048;-70
2022/10/09 12:32:54;;;;;;;6.18;2.00;;;15.90;99.90;;;;;;5071764;28;20535;-71
2022/10/09 12:35:37;;;;;;;7.43;2.05;;;15.90;99.90;;;;;;5055963;28;20053;-71
2022/10/09 12:38:25;;;;;;;6.00;1.90;;;15.90;99.90;;;;;;5093985;28;20044;-71
2022/10/09 12:40:53;;;;;;;11.27;2.10;;;15.90;99.90;;;;;;5077963;28;20411;-72
2022/10/09 12:43:21;;;;;;;8.27;1.80;;;15.80;99.90;;;;;;5094078;28;20101;-73
2022/10/09 12:45:49;;;;;;;8.77;2.30;;;15.80;99.90;;;;;;5069637;28;20087;-73
2022/10/09 12:48:21;;;;;;;5.68;2.63;;;15.80;99.90;;;;;;5090722;28;20132;-72
2022/10/09 12:50:47;;;;;;;5.05;2.00;;;15.90;99.90;;;;;;5077032;28;20048;-71
2022/10/09 12:53:19;;;;;;;5.57;1.98;;;16.10;99.90;;;;;;5075127;28;20454;-71
2022/10/09 12:55:49;;;;;;;7.57;2.08;;;16.10;99.90;;;;;;5078001;28;20386;-73
2022/10/09 12:58:25;;;;;;;7.00;2.25;;;16.40;99.90;;;;;;5078220;28;20091;-70
2022/10/09 13:00:55;;;;;;;9.02;2.92;;;16.40;99.90;;;;;;5086931;28;20429;-73
2022/10/09 13:03:45;;;;;;;7.53;2.10;;;16.40;99.90;;;;;;5089345;28;20040;-70
2022/10/09 13:06:17;;;;;;;5.57;2.15;;;16.40;99.90;;;;;;5060349;28;20149;-70